Aérodrome :
LOGIN :

S'inscrire | Disclaimer

   EN    FR    IT 

 










Légende :    VFR   VFR Marginal   IFR   IFR Intensif   IFR Très Intensif
Visi : 
Plafond : 
>= 8 km
>= 3000ft
5 à 8 km
1000 à 3000 ft
1500m à 5 km
500 à 1000 ft
800 à 1500m
200 à 500 ft
< 800m
< 200 ft
Symboles :   Orages  Brouillard  Fortes neiges  Fortes précipitations  Vent > 20 kt
SIGMETs :   Divers  Orages  Givrage  Turbulence  Onde Orograph.  Cendres Volcan.






- Altitude de l'aérodrome : 289 ft


LFYR - Romorantin Pruniers

DERNIER METAR :
  • 230700Z AUTO 05006KT 350V070 5000 BR OVC004 12/12 Q1012 TEMPO 2000 RADZ

METARs EXPIRÉS :
  • 230630Z AUTO 06005KT 5000 BR OVC004 12/11 Q1012 TEMPO 2000 RADZ
  • 230600Z AUTO 07006KT 5000 BR OVC003 12/11 Q1012 TEMPO 2000 RADZ
  • 230530Z AUTO 06005KT 010V090 5000 BR OVC003/// ///TCU 12/11 Q1012 TEMPO 2000 RADZ BKN003
  • 230500Z AUTO 09006KT 6000 OVC004/// ///TCU 12/11 Q1013 TEMPO 2000 RADZ BKN003
  • 230430Z AUTO 05006KT 350V080 6000 OVC004 12/11 Q1012

Prévision TAF périmée.



MET'MAP, la Météo Aéronautique d'un coup d'oeil ! - Copyright ORBIFLY Décembre 2007 - Disclaimer

ORBIFLY MET'MAP TEAM :

Programmation & Développement : Alexandra Zaïnal
Conception & Développement : Baudouin d'Aumeries
Co-Programmation & Développement : Marc-Olivier Méhu
Soutien technique & logistique : Manuel Goepfert

Contact : metmap@orbifly.com




SOURCES & CREDITS :

   NOAA